createdAt,value
2022-09-17T00:01:29.517Z,95.65
2022-09-17T00:16:36.542Z,99.08
2022-09-17T00:31:38.619Z,97.16
2022-09-17T00:46:44.765Z,98.68
2022-09-17T01:01:46.612Z,100.00
2022-09-17T01:16:48.127Z,99.75
2022-09-17T01:32:00.128Z,100.00
2022-09-17T01:47:07.740Z,100.00
2022-09-17T02:02:12.332Z,100.00
2022-09-17T02:17:22.554Z,100.00
2022-09-17T02:32:24.978Z,87.81
2022-09-17T02:47:44.821Z,100.00
2022-09-17T03:02:50.206Z,100.00
2022-09-17T03:17:53.571Z,100.00
2022-09-17T03:32:55.229Z,100.00
2022-09-17T03:47:56.975Z,97.03
2022-09-17T04:02:58.527Z,96.80
2022-09-17T04:18:00.028Z,99.93
2022-09-17T04:33:01.568Z,100.00
2022-09-17T04:48:03.446Z,100.00
2022-09-17T05:03:04.934Z,91.79
2022-09-17T05:18:06.507Z,96.62
2022-09-17T05:33:08.003Z,87.82
2022-09-17T05:48:13.929Z,81.14
2022-09-17T06:03:16.823Z,81.13
2022-09-17T06:18:18.861Z,77.77
2022-09-17T06:33:20.909Z,96.02
2022-09-17T06:48:23.133Z,95.68
2022-09-17T07:03:24.577Z,97.17
2022-09-17T07:18:26.461Z,90.27
2022-09-17T07:33:28.049Z,76.82
2022-09-17T07:48:30.353Z,68.91
2022-09-17T08:03:31.871Z,74.86
2022-09-17T08:18:33.445Z,76.27
2022-09-17T08:33:36.226Z,74.21
2022-09-17T08:48:41.902Z,70.88
2022-09-17T09:03:43.339Z,76.03
2022-09-17T09:18:45.237Z,87.96
2022-09-17T09:33:48.172Z,89.87
2022-09-17T09:49:15.040Z,98.85
2022-09-17T10:04:24.472Z,100.00
2022-09-17T10:19:26.565Z,100.00
2022-09-17T10:34:29.373Z,100.00
2022-09-17T10:49:31.144Z,100.00
2022-09-17T11:04:32.603Z,100.00
2022-09-17T11:19:45.883Z,100.00
2022-09-17T11:34:53.862Z,100.00
2022-09-17T11:50:00.000Z,100.00
2022-09-17T12:05:09.624Z,100.00
2022-09-17T12:20:31.008Z,92.08
2022-09-17T12:36:00.202Z,82.01
2022-09-17T12:50:59.895Z,86.53
2022-09-17T13:06:13.203Z,85.07
2022-09-17T13:21:20.992Z,87.20
2022-09-17T13:36:38.183Z,82.59
2022-09-17T13:51:39.638Z,89.68
2022-09-17T14:06:48.287Z,86.24
2022-09-17T14:22:02.050Z,89.96
2022-09-17T14:37:03.579Z,100.00
2022-09-17T14:52:23.492Z,100.00
2022-09-17T15:07:25.464Z,100.00
2022-09-17T15:22:28.468Z,100.00
2022-09-17T15:37:29.902Z,100.00
2022-09-17T15:52:34.455Z,100.00
2022-09-17T16:07:35.951Z,100.00
2022-09-17T16:22:37.498Z,100.00
2022-09-17T16:37:38.967Z,100.00
2022-09-17T16:52:40.529Z,100.00
2022-09-17T17:07:41.999Z,93.16
2022-09-17T17:22:44.096Z,100.00
2022-09-17T17:37:45.665Z,100.00
2022-09-17T17:52:48.099Z,100.00
2022-09-17T18:07:49.831Z,100.00
2022-09-17T18:22:51.357Z,100.00
2022-09-17T18:37:52.875Z,100.00
2022-09-17T18:52:54.350Z,100.00
2022-09-17T19:07:55.829Z,100.00
2022-09-17T19:22:57.285Z,100.00
2022-09-17T19:37:59.021Z,100.00
2022-09-17T19:53:00.485Z,100.00
2022-09-17T20:08:03.070Z,100.00
2022-09-17T20:23:04.533Z,100.00
2022-09-17T20:39:06.827Z,100.00
2022-09-17T20:53:29.016Z,100.00
2022-09-17T21:08:30.493Z,100.00
2022-09-17T21:23:32.888Z,79.03
2022-09-17T21:38:34.497Z,78.40
2022-09-17T21:53:36.066Z,64.39
2022-09-17T22:16:08.714Z,85.54
2022-09-17T22:31:11.282Z,65.01
2022-09-17T22:46:23.245Z,63.26
2022-09-17T23:01:28.773Z,67.09
2022-09-17T23:16:34.731Z,63.84
2022-09-17T23:31:36.347Z,65.65
2022-09-17T23:46:37.956Z,64.46
